createdAt,value
2018-12-17T00:00:38.011Z,100752.50
2018-12-17T00:03:05.555Z,100749.06
2018-12-17T00:05:32.971Z,100742.59
2018-12-17T00:08:00.454Z,100743.45
2018-12-17T00:10:27.892Z,100741.24
2018-12-17T00:12:55.365Z,100738.16
2018-12-17T00:15:22.887Z,100741.09
2018-12-17T00:17:50.331Z,100735.79
2018-12-17T00:20:17.811Z,100733.58
2018-12-17T00:22:45.302Z,100734.37
2018-12-17T00:25:12.749Z,100734.74
2018-12-17T00:27:40.206Z,100734.71
2018-12-17T00:30:07.973Z,100718.72
2018-12-17T00:32:35.492Z,100726.95
2018-12-17T00:35:03.103Z,100726.48
2018-12-17T00:37:30.547Z,100729.91
2018-12-17T00:39:58.434Z,100730.77
2018-12-17T00:42:25.871Z,100728.55
2018-12-17T00:44:53.316Z,100725.91
2018-12-17T00:47:20.735Z,100732.77
2018-12-17T00:49:48.188Z,100721.95
2018-12-17T00:52:15.684Z,100725.36
2018-12-17T00:54:43.150Z,100730.93
2018-12-17T00:57:10.686Z,100734.33
2018-12-17T00:59:38.223Z,100731.67
2018-12-17T01:02:05.659Z,100731.16
2018-12-17T01:04:33.139Z,100727.66
2018-12-17T01:07:00.683Z,100733.70
2018-12-17T01:09:28.159Z,100730.64
2018-12-17T01:11:55.634Z,100738.39
2018-12-17T01:14:23.067Z,100736.22
2018-12-17T01:16:50.511Z,100740.09
2018-12-17T01:19:18.046Z,100734.48
2018-12-17T01:21:45.567Z,100742.63
2018-12-17T01:24:13.028Z,100738.76
2018-12-17T01:26:40.485Z,100740.05
2018-12-17T01:29:07.951Z,100741.75
2018-12-17T01:31:35.391Z,100740.45
2018-12-17T01:34:02.825Z,100741.34
2018-12-17T01:36:30.250Z,100742.19
2018-12-17T01:38:57.782Z,100741.27
2018-12-17T01:41:25.216Z,100749.45
2018-12-17T01:43:52.652Z,100760.67
2018-12-17T01:46:20.100Z,100760.67
2018-12-17T01:48:47.548Z,100757.66
2018-12-17T01:51:15.012Z,100752.97
2018-12-17T01:53:42.502Z,100752.97
2018-12-17T01:56:10.022Z,100751.71
2018-12-17T01:58:37.529Z,100751.67
2018-12-17T02:01:04.971Z,100753.84
2018-12-17T02:03:32.439Z,100750.42
2018-12-17T02:05:59.895Z,100757.69
2018-12-17T02:08:27.361Z,100757.73
2018-12-17T02:10:54.788Z,100757.28
2018-12-17T02:13:22.249Z,100763.34
2018-12-17T02:15:49.703Z,100754.73
2018-12-17T02:18:17.144Z,100759.06
2018-12-17T02:20:44.604Z,100751.71
2018-12-17T02:23:12.081Z,100761.27
2018-12-17T02:25:39.507Z,100753.93
2018-12-17T02:28:06.975Z,100764.74
2018-12-17T02:30:34.438Z,100761.35
2018-12-17T02:33:01.892Z,100771.36
2018-12-17T02:35:29.330Z,100764.48
2018-12-17T02:37:56.766Z,100764.97
2018-12-17T02:40:24.195Z,100767.18
2018-12-17T02:42:51.678Z,100766.77
2018-12-17T02:45:19.170Z,100765.89
2018-12-17T02:47:46.625Z,100766.26
2018-12-17T02:50:14.030Z,100767.96
2018-12-17T02:52:41.488Z,100764.48
2018-12-17T02:55:08.910Z,100768.33
2018-12-17T02:57:36.359Z,100770.02
2018-12-17T03:00:06.093Z,100763.53
2018-12-17T03:02:33.558Z,100767.44
2018-12-17T03:05:00.985Z,100767.48
2018-12-17T03:07:28.418Z,100772.69
2018-12-17T03:09:55.856Z,100765.81
2018-12-17T03:12:23.273Z,100767.11
2018-12-17T03:14:50.714Z,100770.14
2018-12-17T03:17:18.169Z,100767.99
2018-12-17T03:19:45.605Z,100777.92
2018-12-17T03:22:13.103Z,100772.72
2018-12-17T03:24:40.705Z,100770.98
2018-12-17T03:27:09.672Z,100780.03
2018-12-17T03:29:37.136Z,100786.94
2018-12-17T03:32:04.735Z,100787.82
2018-12-17T03:34:32.233Z,100791.80
2018-12-17T03:36:59.654Z,100780.66
2018-12-17T03:39:27.182Z,100780.32
2018-12-17T03:41:54.597Z,100781.23
2018-12-17T03:44:22.115Z,100780.87
2018-12-17T03:46:49.559Z,100775.73
2018-12-17T03:49:16.978Z,100777.44
2018-12-17T03:51:44.473Z,100772.30
2018-12-17T03:54:11.890Z,100770.13
2018-12-17T03:56:39.338Z,100774.88
2018-12-17T03:59:06.760Z,100776.17
2018-12-17T04:01:34.257Z,100778.76
2018-12-17T04:04:01.673Z,100782.23
2018-12-17T04:06:29.128Z,100782.23
2018-12-17T04:08:56.583Z,100776.20
2018-12-17T04:11:24.034Z,100774.51
2018-12-17T04:13:51.489Z,100776.69
2018-12-17T04:16:18.933Z,100773.31
2018-12-17T04:18:46.389Z,100771.61
2018-12-17T04:21:13.831Z,100780.25
2018-12-17T04:23:41.262Z,100772.97
2018-12-17T04:26:09.810Z,100775.15
2018-12-17T04:28:37.263Z,100767.42
2018-12-17T04:31:04.705Z,100771.75
2018-12-17T04:33:32.202Z,100777.80
2018-12-17T04:35:59.637Z,100782.13
2018-12-17T04:38:27.082Z,100786.00
2018-12-17T04:40:54.556Z,100796.82
2018-12-17T04:43:22.020Z,100784.77
2018-12-17T04:45:49.491Z,100787.80
2018-12-17T04:48:17.050Z,100788.21
2018-12-17T04:50:44.542Z,100795.12
2018-12-17T04:53:12.000Z,100801.17
2018-12-17T04:55:39.457Z,100799.00
2018-12-17T04:58:07.074Z,100802.91
2018-12-17T05:00:34.599Z,100804.64
2018-12-17T05:03:02.060Z,100798.63
2018-12-17T05:05:29.570Z,100807.27
2018-12-17T05:07:57.017Z,100807.30
2018-12-17T05:10:24.470Z,100805.91
2018-12-17T05:12:51.932Z,100804.68
2018-12-17T05:15:19.508Z,100807.30
2018-12-17T05:17:46.944Z,100812.06
2018-12-17T05:20:14.410Z,100814.23
2018-12-17T05:22:41.859Z,100817.71
2018-12-17T05:25:09.406Z,100811.24
2018-12-17T05:27:41.007Z,100815.12
2018-12-17T05:30:08.922Z,100825.09
2018-12-17T05:32:36.344Z,100825.98
2018-12-17T05:35:04.312Z,100829.04
2018-12-17T05:37:31.735Z,100832.48
2018-12-17T05:39:59.186Z,100835.51
2018-12-17T05:42:26.644Z,100841.13
2018-12-17T05:44:54.193Z,100839.83
2018-12-17T05:47:21.621Z,100844.16
2018-12-17T05:49:49.108Z,100848.48
2018-12-17T05:52:16.707Z,100852.39
2018-12-17T05:54:44.169Z,100849.39
2018-12-17T05:57:11.628Z,100847.69
2018-12-17T05:59:39.145Z,100855.02
2018-12-17T06:02:06.582Z,100855.02
2018-12-17T06:04:34.037Z,100855.05
2018-12-17T06:07:01.487Z,100857.66
2018-12-17T06:09:29.085Z,100857.66
2018-12-17T06:11:56.530Z,100857.22
2018-12-17T06:14:24.032Z,100859.84
2018-12-17T06:16:51.487Z,100864.20
2018-12-17T06:19:18.909Z,100866.38
2018-12-17T06:21:46.358Z,100860.76
2018-12-17T06:24:13.774Z,100867.67
2018-12-17T06:26:41.237Z,100868.11
2018-12-17T06:29:08.666Z,100877.67
2018-12-17T06:31:36.256Z,100877.70
2018-12-17T06:34:03.682Z,100878.63
2018-12-17T06:36:31.173Z,100879.53
2018-12-17T06:38:58.621Z,100880.01
2018-12-17T06:41:26.075Z,100884.36
2018-12-17T06:43:53.518Z,100891.66
2018-12-17T06:46:20.983Z,100890.42
2018-12-17T06:48:48.429Z,100899.02
2018-12-17T06:51:15.885Z,100899.84
2018-12-17T06:53:43.331Z,100900.75
2018-12-17T06:56:10.834Z,100899.52
2018-12-17T06:58:38.374Z,100906.46
2018-12-17T07:01:05.813Z,100907.34
2018-12-17T07:03:33.262Z,100910.34
2018-12-17T07:06:00.704Z,100915.97
2018-12-17T07:08:28.296Z,100919.47
2018-12-17T07:10:55.741Z,100925.09
2018-12-17T07:13:23.185Z,100922.56
2018-12-17T07:15:50.660Z,100922.59
2018-12-17T07:18:19.039Z,100931.69
2018-12-17T07:20:46.475Z,100927.39
2018-12-17T07:23:13.983Z,100931.72
2018-12-17T07:25:41.433Z,100933.02
2018-12-17T07:28:08.845Z,100936.52
2018-12-17T07:30:36.289Z,100936.10
2018-12-17T07:33:03.736Z,100936.09
2018-12-17T07:35:31.172Z,100943.05
2018-12-17T07:37:58.627Z,100940.92
2018-12-17T07:40:26.129Z,100948.34
2018-12-17T07:42:53.562Z,100945.75
2018-12-17T07:45:20.997Z,100947.10
2018-12-17T07:47:48.408Z,100954.47
2018-12-17T07:50:15.859Z,100959.27
2018-12-17T07:52:43.339Z,100964.03
2018-12-17T07:55:10.957Z,100961.06
2018-12-17T07:57:38.407Z,100958.48
2018-12-17T08:00:07.504Z,100961.11
2018-12-17T08:02:34.917Z,100968.91
2018-12-17T08:05:02.450Z,100968.11
2018-12-17T08:07:29.894Z,100977.23
2018-12-17T08:09:57.378Z,100981.18
2018-12-17T08:12:24.824Z,100988.16
2018-12-17T08:14:52.279Z,100986.85
2018-12-17T08:17:19.811Z,100992.06
2018-12-17T08:19:47.374Z,100989.05
2018-12-17T08:22:14.806Z,100994.27
2018-12-17T08:24:42.280Z,100997.69
2018-12-17T08:27:09.757Z,101002.05
2018-12-17T08:29:37.204Z,101007.67
2018-12-17T08:32:04.709Z,101007.26
2018-12-17T08:34:34.110Z,101011.23
2018-12-17T08:37:01.540Z,101015.16
2018-12-17T08:39:29.115Z,101016.91
2018-12-17T08:41:56.553Z,101021.27
2018-12-17T08:44:23.961Z,101028.20
2018-12-17T08:46:51.402Z,101032.55
2018-12-17T08:49:18.819Z,101031.28
2018-12-17T08:51:46.294Z,101036.52
2018-12-17T08:54:13.716Z,101039.14
2018-12-17T08:56:41.194Z,101038.33
2018-12-17T08:59:08.619Z,101044.83
2018-12-17T09:01:36.151Z,101050.93
2018-12-17T09:04:03.674Z,101049.24
2018-12-17T09:06:31.115Z,101056.20
2018-12-17T09:08:58.542Z,101054.92
2018-12-17T09:11:26.048Z,101058.84
2018-12-17T09:13:53.503Z,101060.16
2018-12-17T09:16:22.132Z,101063.66
2018-12-17T09:18:49.653Z,101064.95
2018-12-17T09:21:17.074Z,101065.44
2018-12-17T09:23:44.519Z,101069.77
2018-12-17T09:26:11.938Z,101073.27
2018-12-17T09:28:39.366Z,101076.75
2018-12-17T09:31:06.874Z,101076.33
2018-12-17T09:33:34.810Z,101075.49
2018-12-17T09:36:02.321Z,101080.28
2018-12-17T09:38:29.786Z,101087.70
2018-12-17T09:40:57.261Z,101092.47
2018-12-17T09:43:24.723Z,101095.95
2018-12-17T09:45:52.269Z,101104.64
2018-12-17T09:48:19.818Z,101109.86
2018-12-17T09:50:47.394Z,101103.81
2018-12-17T09:53:14.825Z,101109.95
2018-12-17T09:55:42.360Z,101110.44
2018-12-17T09:58:09.802Z,101112.19
2018-12-17T10:00:37.268Z,101111.36
2018-12-17T10:03:04.695Z,101112.28
2018-12-17T10:05:32.133Z,101111.01
2018-12-17T10:07:59.585Z,101112.80
2018-12-17T10:10:27.051Z,101112.41
2018-12-17T10:12:54.471Z,101109.42
2018-12-17T10:15:21.946Z,101103.82
2018-12-17T10:17:50.399Z,101109.48
2018-12-17T10:20:17.862Z,101109.52
2018-12-17T10:22:45.287Z,101116.92
2018-12-17T10:25:12.723Z,101113.48
2018-12-17T10:27:40.140Z,101114.81
2018-12-17T10:30:07.770Z,101111.81
2018-12-17T10:32:35.190Z,101107.49
2018-12-17T10:35:02.611Z,101107.05
2018-12-17T10:37:30.325Z,101109.18
2018-12-17T10:39:57.787Z,101110.07
2018-12-17T10:42:25.214Z,101113.98
2018-12-17T10:44:52.672Z,101122.69
2018-12-17T10:47:20.095Z,101127.91
2018-12-17T10:49:47.534Z,101125.31
2018-12-17T10:52:14.990Z,101119.64
2018-12-17T10:54:42.428Z,101135.72
2018-12-17T10:57:09.873Z,101128.80
2018-12-17T10:59:37.302Z,101137.47
2018-12-17T11:02:07.050Z,101140.09
2018-12-17T11:04:36.459Z,101142.27
2018-12-17T11:07:04.195Z,101145.73
2018-12-17T11:09:31.611Z,101140.09
2018-12-17T11:11:59.074Z,101141.81
2018-12-17T11:14:26.502Z,101144.41
2018-12-17T11:16:53.935Z,101148.33
2018-12-17T11:19:21.526Z,101147.03
2018-12-17T11:21:49.103Z,101151.38
2018-12-17T11:24:16.626Z,101158.73
2018-12-17T11:26:44.069Z,101152.22
2018-12-17T11:29:11.525Z,101156.99
2018-12-17T11:31:38.954Z,101153.52
2018-12-17T11:34:06.396Z,101166.97
2018-12-17T11:36:33.811Z,101158.27
2018-12-17T11:39:01.348Z,101160.44
2018-12-17T11:41:28.775Z,101168.67
2018-12-17T11:43:56.218Z,101167.42
2018-12-17T11:46:23.781Z,101167.83
2018-12-17T11:48:51.349Z,101170.44
2018-12-17T11:51:18.762Z,101172.15
2018-12-17T11:53:46.213Z,101168.26
2018-12-17T11:56:13.858Z,101172.59
2018-12-17T11:58:41.408Z,101165.66
2018-12-17T12:01:10.118Z,101171.71
2018-12-17T12:03:38.337Z,101169.56
2018-12-17T12:06:06.067Z,101167.39
2018-12-17T12:08:33.503Z,101167.40
2018-12-17T12:11:00.965Z,101172.17
2018-12-17T12:13:28.411Z,101179.13
2018-12-17T12:15:55.832Z,101163.94
2018-12-17T12:18:23.264Z,101175.23
2018-12-17T12:20:50.714Z,101177.44
2018-12-17T12:23:18.129Z,101175.73
2018-12-17T12:25:45.575Z,101169.64
2018-12-17T12:28:13.104Z,101181.77
2018-12-17T12:30:40.642Z,101180.47
2018-12-17T12:33:08.107Z,101186.14
2018-12-17T12:35:35.626Z,101185.70
2018-12-17T12:38:03.056Z,101190.50
2018-12-17T12:40:30.487Z,101193.55
2018-12-17T12:42:57.903Z,101198.74
2018-12-17T12:45:25.362Z,101204.82
2018-12-17T12:47:52.787Z,101207.88
2018-12-17T12:50:20.239Z,101211.78
2018-12-17T12:52:47.690Z,101216.13
2018-12-17T12:55:15.235Z,101217.88
2018-12-17T12:57:42.666Z,101219.14
2018-12-17T13:00:11.526Z,101223.50
2018-12-17T13:02:39.073Z,101228.69
2018-12-17T13:05:06.685Z,101233.48
2018-12-17T13:07:34.138Z,101226.95
2018-12-17T13:10:01.564Z,101231.30
2018-12-17T13:12:28.982Z,101242.59
2018-12-17T13:14:56.415Z,101238.66
2018-12-17T13:17:28.193Z,101247.76
2018-12-17T13:19:59.554Z,101250.79
2018-12-17T13:22:26.994Z,101252.53
2018-12-17T13:24:54.416Z,101260.80
2018-12-17T13:27:21.892Z,101268.63
2018-12-17T13:29:49.312Z,101264.27
2018-12-17T13:32:17.072Z,101269.52
2018-12-17T13:34:44.483Z,101275.59
2018-12-17T13:37:11.931Z,101276.95
2018-12-17T13:39:39.361Z,101275.65
2018-12-17T13:42:07.899Z,101276.95
2018-12-17T13:44:35.360Z,101268.75
2018-12-17T13:47:02.890Z,101274.81
2018-12-17T13:49:30.345Z,101276.59
2018-12-17T13:55:05.732Z,101276.59
2018-12-17T13:57:33.172Z,101279.63
2018-12-17T14:00:00.604Z,101281.80
2018-12-17T14:02:28.040Z,101280.50
2018-12-17T14:04:55.635Z,101284.84
2018-12-17T14:07:23.062Z,101283.98
2018-12-17T14:12:55.690Z,101289.20
2018-12-17T14:15:25.138Z,101293.12
2018-12-17T14:17:54.583Z,101304.84
2018-12-17T14:20:27.695Z,101310.08
2018-12-17T14:22:55.169Z,101317.45
2018-12-17T14:25:22.830Z,101320.50
2018-12-17T14:27:50.257Z,101334.40
2018-12-17T14:30:17.731Z,101335.27
2018-12-17T14:32:45.148Z,101342.24
2018-12-17T14:35:12.579Z,101350.06
2018-12-17T14:37:41.986Z,101357.45
2018-12-17T14:40:09.644Z,101355.73
2018-12-17T14:42:37.066Z,101360.94
2018-12-17T14:45:04.888Z,101357.92
2018-12-17T14:47:32.419Z,101362.27
2018-12-17T14:49:59.857Z,101367.49
2018-12-17T14:52:27.324Z,101372.72
2018-12-17T14:54:54.771Z,101385.34
2018-12-17T14:57:22.291Z,101379.69
2018-12-17T14:59:49.726Z,101397.53
2018-12-17T15:02:17.314Z,101401.88
2018-12-17T15:04:44.777Z,101415.31
2018-12-17T15:07:12.205Z,101417.91
2018-12-17T15:09:39.622Z,101418.75
2018-12-17T15:12:07.062Z,101418.33
2018-12-17T15:14:34.487Z,101413.52
2018-12-17T15:17:01.926Z,101413.48
2018-12-17T15:19:29.415Z,101417.34
2018-12-17T15:21:56.887Z,101421.70
2018-12-17T15:24:24.653Z,101426.87
2018-12-17T15:26:52.198Z,101434.63
2018-12-17T15:29:19.863Z,101440.23
2018-12-17T15:31:47.425Z,101451.48
2018-12-17T15:34:14.990Z,101447.09
2018-12-17T15:36:42.649Z,101457.46
2018-12-17T15:39:10.088Z,101457.01
2018-12-17T15:41:37.555Z,101463.91
2018-12-17T15:44:04.994Z,101470.80
2018-12-17T15:46:32.452Z,101474.68
2018-12-17T15:48:59.990Z,101478.15
2018-12-17T15:51:27.420Z,101483.34
2018-12-17T15:53:54.872Z,101497.59
2018-12-17T15:56:22.292Z,101494.53
2018-12-17T15:58:49.734Z,101504.04
2018-12-17T16:01:17.173Z,101513.16
2018-12-17T16:03:44.601Z,101520.55
2018-12-17T16:06:12.045Z,101523.61
2018-12-17T16:08:39.486Z,101529.70
2018-12-17T16:11:07.002Z,101531.03
2018-12-17T16:13:34.464Z,101537.14
2018-12-17T16:16:01.882Z,101540.66
2018-12-17T16:18:29.443Z,101542.42
2018-12-17T16:20:56.888Z,101542.00
2018-12-17T16:23:24.320Z,101544.61
2018-12-17T16:25:51.773Z,101551.59
2018-12-17T16:28:19.214Z,101554.61
2018-12-17T16:33:20.432Z,101552.30
2018-12-17T16:35:47.900Z,101551.80
2018-12-17T16:38:15.329Z,101553.08
2018-12-17T16:40:42.951Z,101555.63
2018-12-17T16:43:10.383Z,101557.32
2018-12-17T16:45:37.838Z,101558.16
2018-12-17T16:48:05.270Z,101554.64
2018-12-17T16:50:32.709Z,101564.58
2018-12-17T16:53:00.181Z,101562.83
2018-12-17T16:55:28.337Z,101564.08
2018-12-17T16:57:55.809Z,101563.16
2018-12-17T17:00:23.258Z,101563.13
2018-12-17T17:02:50.854Z,101567.89
2018-12-17T17:05:18.476Z,101570.44
2018-12-17T17:07:45.925Z,101567.80
2018-12-17T17:10:13.420Z,101574.30
2018-12-17T17:12:41.006Z,101578.63
2018-12-17T17:15:09.491Z,101584.23
2018-12-17T17:17:36.953Z,101583.80
2018-12-17T17:20:06.096Z,101584.62
2018-12-17T17:22:33.541Z,101588.05
2018-12-17T17:25:01.046Z,101588.45
2018-12-17T17:27:30.444Z,101593.63
2018-12-17T17:29:58.096Z,101599.23
2018-12-17T17:32:25.546Z,101597.91
2018-12-17T17:34:53.014Z,101597.02
2018-12-17T17:37:20.412Z,101603.07
2018-12-17T17:39:49.916Z,101613.88
2018-12-17T17:42:17.472Z,101616.04
2018-12-17T17:44:45.763Z,101612.52
2018-12-17T17:47:13.181Z,101612.07
2018-12-17T17:49:40.651Z,101618.58
2018-12-17T17:52:08.091Z,101623.77
2018-12-17T17:54:35.550Z,101625.45
2018-12-17T17:57:07.225Z,101621.95
2018-12-17T17:59:34.916Z,101630.20
2018-12-17T18:02:02.354Z,101634.14
2018-12-17T18:04:29.915Z,101630.20
2018-12-17T18:06:57.393Z,101634.10
2018-12-17T18:09:24.875Z,101639.27
2018-12-17T18:11:52.343Z,101645.31
2018-12-17T18:14:19.798Z,101643.58
2018-12-17T18:16:47.438Z,101642.27
2018-12-17T18:19:14.895Z,101645.28
2018-12-17T18:21:42.391Z,101650.03
2018-12-17T18:24:09.863Z,101648.66
2018-12-17T18:26:37.309Z,101651.70
2018-12-17T18:29:08.960Z,101651.22
2018-12-17T18:31:36.443Z,101661.63
2018-12-17T18:34:04.906Z,101661.17
2018-12-17T18:36:32.395Z,101665.97
2018-12-17T18:38:59.898Z,101675.06
2018-12-17T18:41:27.497Z,101671.16
2018-12-17T18:43:59.614Z,101672.42
2018-12-17T18:46:27.215Z,101681.94
2018-12-17T18:48:54.779Z,101676.70
2018-12-17T18:51:22.242Z,101681.89
2018-12-17T18:53:49.691Z,101681.48
2018-12-17T18:56:17.294Z,101690.14
2018-12-17T18:58:46.024Z,101692.70
2018-12-17T19:01:13.591Z,101698.75
2018-12-17T19:03:41.051Z,101706.14
2018-12-17T19:06:08.480Z,101706.17
2018-12-17T19:08:36.125Z,101703.95
2018-12-17T19:11:03.615Z,101706.55
2018-12-17T19:13:31.200Z,101706.55
2018-12-17T19:15:58.649Z,101707.39
2018-12-17T19:18:26.971Z,101702.12
2018-12-17T19:20:54.400Z,101710.31
2018-12-17T19:23:22.009Z,101713.77
2018-12-17T19:25:49.492Z,101708.94
2018-12-17T19:28:16.974Z,101710.24
2018-12-17T19:30:45.040Z,101721.48
2018-12-17T19:33:12.578Z,101718.92
2018-12-17T19:35:40.047Z,101722.42
2018-12-17T19:38:07.539Z,101737.20
2018-12-17T19:40:35.012Z,101729.36
2018-12-17T19:43:02.521Z,101734.92
2018-12-17T19:45:29.978Z,101744.02
2018-12-17T19:47:57.402Z,101739.22
2018-12-17T19:50:29.330Z,101738.77
2018-12-17T19:52:56.833Z,101737.88
2018-12-17T19:55:24.388Z,101744.38
2018-12-17T19:57:51.923Z,101745.27
2018-12-17T20:00:19.536Z,101741.82
2018-12-17T20:02:47.341Z,101753.11
2018-12-17T20:05:14.800Z,101754.02
2018-12-17T20:07:42.355Z,101759.33
2018-12-17T20:10:11.910Z,101763.28
2018-12-17T20:12:39.477Z,101765.52
2018-12-17T20:15:07.048Z,101767.72
2018-12-17T20:17:34.661Z,101774.74
2018-12-17T20:20:02.291Z,101773.45
2018-12-17T20:22:29.756Z,101775.68
2018-12-17T20:24:57.269Z,101773.53
2018-12-17T20:27:24.719Z,101766.98
2018-12-17T20:29:52.384Z,101778.16
2018-12-17T20:32:19.801Z,101782.81
2018-12-17T20:34:47.329Z,101784.92
2018-12-17T20:37:14.733Z,101784.88
2018-12-17T20:39:42.351Z,101787.44
2018-12-17T20:42:09.801Z,101786.95
2018-12-17T20:44:37.241Z,101787.80
2018-12-17T20:47:04.821Z,101783.41
2018-12-17T20:49:32.265Z,101789.45
2018-12-17T20:51:59.732Z,101788.16
2018-12-17T20:54:27.203Z,101790.75
2018-12-17T20:56:54.642Z,101795.90
2018-12-17T20:59:22.174Z,101791.96
2018-12-17T21:01:49.621Z,101794.11
2018-12-17T21:04:17.065Z,101799.26
2018-12-17T21:06:49.904Z,101795.77
2018-12-17T21:09:14.040Z,101799.20
2018-12-17T21:11:42.244Z,101803.52
2018-12-17T21:14:09.670Z,101797.83
2018-12-17T21:16:37.263Z,101799.11
2018-12-17T21:19:04.700Z,101800.81
2018-12-17T21:21:32.130Z,101798.17
2018-12-17T21:23:59.601Z,101802.02
2018-12-17T21:26:27.063Z,101798.12
2018-12-17T21:28:55.867Z,101798.12
2018-12-17T21:31:23.494Z,101798.92
2018-12-17T21:33:50.922Z,101804.07
2018-12-17T21:36:18.367Z,101801.48
2018-12-17T21:38:45.840Z,101806.22
2018-12-17T21:41:13.273Z,101806.61
2018-12-17T21:43:41.637Z,101808.72
2018-12-17T21:46:09.124Z,101810.42
2018-12-17T21:48:36.561Z,101809.11
2018-12-17T21:51:04.236Z,101817.27
2018-12-17T21:53:31.910Z,101810.77
2018-12-17T21:55:59.345Z,101815.06
2018-12-17T21:58:26.846Z,101824.16
2018-12-17T22:00:54.267Z,101827.64
2018-12-17T22:03:21.675Z,101830.80
2018-12-17T22:05:49.121Z,101829.25
2018-12-17T22:08:16.554Z,101835.44
2018-12-17T22:10:44.159Z,101833.79
2018-12-17T22:13:11.605Z,101839.44
2018-12-17T22:15:39.072Z,101834.29
2018-12-17T22:18:06.497Z,101835.09
2018-12-17T22:20:33.966Z,101834.54
2018-12-17T22:23:01.415Z,101838.39
2018-12-17T22:25:28.877Z,101844.05
2018-12-17T22:27:56.313Z,101844.09
2018-12-17T22:30:23.740Z,101842.84
2018-12-17T22:32:51.210Z,101840.33
2018-12-17T22:35:18.654Z,101845.53
2018-12-17T22:37:46.117Z,101849.43
2018-12-17T22:40:13.655Z,101851.17
2018-12-17T22:42:41.095Z,101855.08
2018-12-17T22:45:08.823Z,101858.17
2018-12-17T22:47:36.387Z,101865.16
2018-12-17T22:50:08.124Z,101869.56
2018-12-17T22:52:35.560Z,101866.56
2018-12-17T22:55:03.050Z,101862.70
2018-12-17T22:57:30.543Z,101860.51
2018-12-17T22:59:57.979Z,101854.81
2018-12-17T23:02:25.498Z,101857.06
2018-12-17T23:04:52.916Z,101854.91
2018-12-17T23:07:20.397Z,101856.66
2018-12-17T23:09:59.731Z,101857.56
2018-12-17T23:12:39.106Z,101851.97
2018-12-17T23:15:18.501Z,101858.05
2018-12-17T23:17:45.555Z,101852.90
2018-12-17T23:20:13.052Z,101851.61
2018-12-17T23:22:42.767Z,101848.59
2018-12-17T23:25:10.203Z,101844.70
2018-12-17T23:27:37.823Z,101846.91
2018-12-17T23:30:06.909Z,101839.59
2018-12-17T23:32:34.540Z,101841.75
2018-12-17T23:35:01.963Z,101846.55
2018-12-17T23:37:29.392Z,101843.55
2018-12-17T23:39:56.952Z,101837.98
2018-12-17T23:42:24.382Z,101837.98
2018-12-17T23:44:51.886Z,101830.19
2018-12-17T23:47:19.353Z,101834.49
2018-12-17T23:49:46.832Z,101832.38
2018-12-17T23:52:14.357Z,101832.83
2018-12-17T23:54:41.987Z,101832.83
2018-12-17T23:57:09.439Z,101838.52
2018-12-17T23:59:36.893Z,101832.92
